sensor_id;sensor_type;location;lat;lon;timestamp;P1;durP1;ratioP1;P2;durP2;ratioP2
9819;SDS011;4949;48.482;9.206;2022-09-30T00:04:31;5.87;;;5.37;;
9819;SDS011;4949;48.482;9.206;2022-09-30T00:09:32;5.00;;;4.60;;
9819;SDS011;4949;48.482;9.206;2022-09-30T00:14:33;5.03;;;4.63;;
9819;SDS011;4949;48.482;9.206;2022-09-30T00:19:34;6.33;;;5.50;;
9819;SDS011;4949;48.482;9.206;2022-09-30T00:24:37;10.43;;;6.90;;
9819;SDS011;4949;48.482;9.206;2022-09-30T00:29:43;5.73;;;5.23;;
9819;SDS011;4949;48.482;9.206;2022-09-30T00:34:44;8.90;;;8.10;;
9819;SDS011;4949;48.482;9.206;2022-09-30T00:39:47;5.67;;;5.20;;
9819;SDS011;4949;48.482;9.206;2022-09-30T00:44:49;5.00;;;4.70;;
9819;SDS011;4949;48.482;9.206;2022-09-30T00:55:38;6.10;;;5.60;;
9819;SDS011;4949;48.482;9.206;2022-09-30T01:00:41;5.93;;;5.50;;
9819;SDS011;4949;48.482;9.206;2022-09-30T01:05:47;6.23;;;5.57;;
9819;SDS011;4949;48.482;9.206;2022-09-30T01:10:50;7.00;;;6.30;;
9819;SDS011;4949;48.482;9.206;2022-09-30T01:16:16;6.33;;;5.80;;
9819;SDS011;4949;48.482;9.206;2022-09-30T01:38:01;5.53;;;5.13;;
9819;SDS011;4949;48.482;9.206;2022-09-30T01:54:09;6.33;;;5.77;;
9819;SDS011;4949;48.482;9.206;2022-09-30T01:59:49;6.40;;;5.90;;
9819;SDS011;4949;48.482;9.206;2022-09-30T02:05:13;5.97;;;5.37;;
9819;SDS011;4949;48.482;9.206;2022-09-30T02:10:27;5.33;;;4.93;;
9819;SDS011;4949;48.482;9.206;2022-09-30T02:15:35;6.20;;;5.70;;
9819;SDS011;4949;48.482;9.206;2022-09-30T02:20:42;5.90;;;5.40;;
9819;SDS011;4949;48.482;9.206;2022-09-30T02:25:50;5.60;;;5.10;;
9819;SDS011;4949;48.482;9.206;2022-09-30T02:31:13;6.27;;;5.67;;
9819;SDS011;4949;48.482;9.206;2022-09-30T02:41:28;5.60;;;5.17;;
9819;SDS011;4949;48.482;9.206;2022-09-30T03:02:35;5.70;;;5.20;;
9819;SDS011;4949;48.482;9.206;2022-09-30T03:07:38;6.97;;;6.40;;
9819;SDS011;4949;48.482;9.206;2022-09-30T03:18:10;7.03;;;5.60;;
9819;SDS011;4949;48.482;9.206;2022-09-30T03:23:38;5.93;;;5.43;;
9819;SDS011;4949;48.482;9.206;2022-09-30T03:34:30;6.97;;;6.27;;
9819;SDS011;4949;48.482;9.206;2022-09-30T03:45:06;8.07;;;6.50;;
9819;SDS011;4949;48.482;9.206;2022-09-30T03:50:19;6.70;;;6.20;;
9819;SDS011;4949;48.482;9.206;2022-09-30T03:55:23;7.97;;;6.47;;
9819;SDS011;4949;48.482;9.206;2022-09-30T04:00:33;8.10;;;7.30;;
9819;SDS011;4949;48.482;9.206;2022-09-30T04:05:34;6.80;;;6.20;;
9819;SDS011;4949;48.482;9.206;2022-09-30T04:10:43;6.27;;;5.77;;
9819;SDS011;4949;48.482;9.206;2022-09-30T04:15:51;7.00;;;6.30;;
9819;SDS011;4949;48.482;9.206;2022-09-30T04:20:54;6.10;;;5.40;;
9819;SDS011;4949;48.482;9.206;2022-09-30T04:25:55;7.10;;;5.90;;
9819;SDS011;4949;48.482;9.206;2022-09-30T04:30:58;6.57;;;5.77;;
9819;SDS011;4949;48.482;9.206;2022-09-30T04:36:05;7.23;;;6.53;;
9819;SDS011;4949;48.482;9.206;2022-09-30T04:41:06;6.13;;;5.10;;
9819;SDS011;4949;48.482;9.206;2022-09-30T04:46:11;6.63;;;6.03;;
9819;SDS011;4949;48.482;9.206;2022-09-30T04:51:16;6.70;;;6.20;;
9819;SDS011;4949;48.482;9.206;2022-09-30T04:56:20;6.60;;;6.00;;
9819;SDS011;4949;48.482;9.206;2022-09-30T05:01:25;7.27;;;6.57;;
9819;SDS011;4949;48.482;9.206;2022-09-30T05:06:28;6.57;;;5.93;;
9819;SDS011;4949;48.482;9.206;2022-09-30T05:11:31;7.30;;;6.70;;
9819;SDS011;4949;48.482;9.206;2022-09-30T05:21:33;7.10;;;6.07;;
9819;SDS011;4949;48.482;9.206;2022-09-30T05:26:34;6.33;;;5.77;;
9819;SDS011;4949;48.482;9.206;2022-09-30T05:31:35;8.07;;;7.27;;
9819;SDS011;4949;48.482;9.206;2022-09-30T05:36:36;6.70;;;6.10;;
9819;SDS011;4949;48.482;9.206;2022-09-30T05:41:36;7.30;;;6.70;;
9819;SDS011;4949;48.482;9.206;2022-09-30T05:46:37;6.80;;;6.00;;
9819;SDS011;4949;48.482;9.206;2022-09-30T05:51:41;5.37;;;4.87;;
9819;SDS011;4949;48.482;9.206;2022-09-30T05:56:42;6.93;;;6.33;;
9819;SDS011;4949;48.482;9.206;2022-09-30T06:01:46;5.83;;;5.33;;
9819;SDS011;4949;48.482;9.206;2022-09-30T06:06:48;5.20;;;4.80;;
9819;SDS011;4949;48.482;9.206;2022-09-30T06:11:54;8.17;;;7.37;;
9819;SDS011;4949;48.482;9.206;2022-09-30T06:16:59;6.03;;;5.40;;
9819;SDS011;4949;48.482;9.206;2022-09-30T06:22:02;6.43;;;5.23;;
9819;SDS011;4949;48.482;9.206;2022-09-30T06:27:05;4.27;;;3.97;;
9819;SDS011;4949;48.482;9.206;2022-09-30T06:32:05;8.93;;;6.50;;
9819;SDS011;4949;48.482;9.206;2022-09-30T06:37:06;8.70;;;5.23;;
9819;SDS011;4949;48.482;9.206;2022-09-30T06:42:10;5.70;;;4.77;;
9819;SDS011;4949;48.482;9.206;2022-09-30T06:47:14;5.43;;;4.63;;
9819;SDS011;4949;48.482;9.206;2022-09-30T06:52:18;5.37;;;4.43;;
9819;SDS011;4949;48.482;9.206;2022-09-30T06:57:21;5.97;;;5.37;;
9819;SDS011;4949;48.482;9.206;2022-09-30T07:02:26;5.90;;;5.30;;
9819;SDS011;4949;48.482;9.206;2022-09-30T07:07:32;6.00;;;5.40;;
9819;SDS011;4949;48.482;9.206;2022-09-30T07:12:35;5.83;;;5.30;;
9819;SDS011;4949;48.482;9.206;2022-09-30T07:17:38;6.10;;;5.60;;
9819;SDS011;4949;48.482;9.206;2022-09-30T07:22:43;5.87;;;5.37;;
9819;SDS011;4949;48.482;9.206;2022-09-30T07:27:49;6.03;;;5.43;;
9819;SDS011;4949;48.482;9.206;2022-09-30T07:32:53;6.47;;;5.60;;
9819;SDS011;4949;48.482;9.206;2022-09-30T07:37:54;5.63;;;5.20;;
9819;SDS011;4949;48.482;9.206;2022-09-30T07:42:59;6.70;;;6.10;;
9819;SDS011;4949;48.482;9.206;2022-09-30T07:48:05;7.27;;;5.70;;
9819;SDS011;4949;48.482;9.206;2022-09-30T07:53:28;6.83;;;6.23;;
9819;SDS011;4949;48.482;9.206;2022-09-30T07:58:29;8.40;;;6.47;;
9819;SDS011;4949;48.482;9.206;2022-09-30T08:03:36;5.97;;;5.20;;
9819;SDS011;4949;48.482;9.206;2022-09-30T08:08:41;5.43;;;5.03;;
9819;SDS011;4949;48.482;9.206;2022-09-30T08:13:43;7.50;;;6.83;;
9819;SDS011;4949;48.482;9.206;2022-09-30T08:18:52;8.87;;;7.33;;
9819;SDS011;4949;48.482;9.206;2022-09-30T08:23:58;9.77;;;8.97;;
9819;SDS011;4949;48.482;9.206;2022-09-30T08:29:02;9.73;;;8.93;;
9819;SDS011;4949;48.482;9.206;2022-09-30T08:34:03;12.27;;;9.00;;
9819;SDS011;4949;48.482;9.206;2022-09-30T08:39:09;10.17;;;9.13;;
9819;SDS011;4949;48.482;9.206;2022-09-30T08:54:53;10.77;;;9.60;;
9819;SDS011;4949;48.482;9.206;2022-09-30T08:59:57;9.80;;;8.90;;
9819;SDS011;4949;48.482;9.206;2022-09-30T09:05:05;10.03;;;8.97;;
9819;SDS011;4949;48.482;9.206;2022-09-30T09:16:23;11.30;;;10.17;;
9819;SDS011;4949;48.482;9.206;2022-09-30T09:26:45;14.03;;;10.40;;
9819;SDS011;4949;48.482;9.206;2022-09-30T09:31:52;10.60;;;9.20;;
9819;SDS011;4949;48.482;9.206;2022-09-30T09:47:52;10.73;;;9.73;;
9819;SDS011;4949;48.482;9.206;2022-09-30T09:58:35;8.43;;;7.63;;
9819;SDS011;4949;48.482;9.206;2022-09-30T10:03:40;9.30;;;7.57;;
9819;SDS011;4949;48.482;9.206;2022-09-30T10:08:51;9.20;;;8.30;;
9819;SDS011;4949;48.482;9.206;2022-09-30T10:13:58;7.93;;;7.30;;
9819;SDS011;4949;48.482;9.206;2022-09-30T10:19:00;9.50;;;8.30;;
9819;SDS011;4949;48.482;9.206;2022-09-30T10:24:17;8.10;;;7.40;;
9819;SDS011;4949;48.482;9.206;2022-09-30T10:29:30;7.60;;;6.77;;
9819;SDS011;4949;48.482;9.206;2022-09-30T10:39:43;6.60;;;5.10;;
9819;SDS011;4949;48.482;9.206;2022-09-30T10:45:20;5.80;;;5.30;;
9819;SDS011;4949;48.482;9.206;2022-09-30T10:50:31;6.57;;;6.07;;
9819;SDS011;4949;48.482;9.206;2022-09-30T10:55:33;6.00;;;5.43;;
9819;SDS011;4949;48.482;9.206;2022-09-30T11:00:41;5.10;;;4.70;;
9819;SDS011;4949;48.482;9.206;2022-09-30T11:05:45;5.30;;;4.80;;
9819;SDS011;4949;48.482;9.206;2022-09-30T11:21:54;5.47;;;4.40;;
9819;SDS011;4949;48.482;9.206;2022-09-30T11:32:21;5.30;;;4.80;;
9819;SDS011;4949;48.482;9.206;2022-09-30T11:43:21;7.03;;;4.27;;
9819;SDS011;4949;48.482;9.206;2022-09-30T11:54:24;3.63;;;3.43;;
9819;SDS011;4949;48.482;9.206;2022-09-30T11:59:38;4.17;;;3.77;;
9819;SDS011;4949;48.482;9.206;2022-09-30T12:04:53;3.63;;;3.33;;
9819;SDS011;4949;48.482;9.206;2022-09-30T12:10:03;3.37;;;3.17;;
9819;SDS011;4949;48.482;9.206;2022-09-30T12:15:30;3.53;;;3.20;;
9819;SDS011;4949;48.482;9.206;2022-09-30T12:20:35;3.63;;;3.33;;
9819;SDS011;4949;48.482;9.206;2022-09-30T12:25:59;3.80;;;3.40;;
9819;SDS011;4949;48.482;9.206;2022-09-30T12:31:56;3.70;;;3.50;;
9819;SDS011;4949;48.482;9.206;2022-09-30T12:47:55;3.40;;;3.10;;
9819;SDS011;4949;48.482;9.206;2022-09-30T12:53:08;2.80;;;2.60;;
9819;SDS011;4949;48.482;9.206;2022-09-30T12:58:26;3.90;;;2.70;;
9819;SDS011;4949;48.482;9.206;2022-09-30T13:04:34;3.03;;;2.57;;
9819;SDS011;4949;48.482;9.206;2022-09-30T13:09:16;4.60;;;3.20;;
9819;SDS011;4949;48.482;9.206;2022-09-30T13:30:29;3.00;;;2.80;;
9819;SDS011;4949;48.482;9.206;2022-09-30T13:35:31;4.03;;;2.80;;
9819;SDS011;4949;48.482;9.206;2022-09-30T13:40:35;5.10;;;3.07;;
9819;SDS011;4949;48.482;9.206;2022-09-30T13:46:03;2.93;;;2.73;;
9819;SDS011;4949;48.482;9.206;2022-09-30T13:51:13;2.87;;;2.57;;
9819;SDS011;4949;48.482;9.206;2022-09-30T13:56:19;2.83;;;2.53;;
9819;SDS011;4949;48.482;9.206;2022-09-30T14:06:47;3.27;;;2.27;;
9819;SDS011;4949;48.482;9.206;2022-09-30T14:24:11;2.40;;;2.00;;
9819;SDS011;4949;48.482;9.206;2022-09-30T14:34:35;2.90;;;2.53;;
9819;SDS011;4949;48.482;9.206;2022-09-30T14:39:38;4.27;;;2.73;;
9819;SDS011;4949;48.482;9.206;2022-09-30T14:44:39;2.80;;;2.60;;
9819;SDS011;4949;48.482;9.206;2022-09-30T14:49:40;2.70;;;2.50;;
9819;SDS011;4949;48.482;9.206;2022-09-30T14:54:45;2.73;;;2.53;;
9819;SDS011;4949;48.482;9.206;2022-09-30T14:59:46;2.90;;;2.23;;
9819;SDS011;4949;48.482;9.206;2022-09-30T15:04:53;4.30;;;2.77;;
9819;SDS011;4949;48.482;9.206;2022-09-30T15:09:59;2.47;;;2.27;;
9819;SDS011;4949;48.482;9.206;2022-09-30T15:15:20;2.43;;;2.23;;
9819;SDS011;4949;48.482;9.206;2022-09-30T15:20:32;3.00;;;2.80;;
9819;SDS011;4949;48.482;9.206;2022-09-30T15:25:39;4.43;;;2.40;;
9819;SDS011;4949;48.482;9.206;2022-09-30T15:30:42;2.97;;;2.10;;
9819;SDS011;4949;48.482;9.206;2022-09-30T15:35:43;3.90;;;2.30;;
9819;SDS011;4949;48.482;9.206;2022-09-30T15:40:46;6.50;;;4.00;;
9819;SDS011;4949;48.482;9.206;2022-09-30T15:45:59;4.07;;;3.67;;
9819;SDS011;4949;48.482;9.206;2022-09-30T15:56:35;6.43;;;3.50;;
9819;SDS011;4949;48.482;9.206;2022-09-30T16:01:51;6.63;;;3.17;;
9819;SDS011;4949;48.482;9.206;2022-09-30T16:07:09;6.43;;;3.33;;
9819;SDS011;4949;48.482;9.206;2022-09-30T16:12:20;3.80;;;3.00;;
9819;SDS011;4949;48.482;9.206;2022-09-30T16:17:29;3.30;;;3.00;;
9819;SDS011;4949;48.482;9.206;2022-09-30T16:27:47;3.50;;;3.20;;
9819;SDS011;4949;48.482;9.206;2022-09-30T16:32:55;4.77;;;4.33;;
9819;SDS011;4949;48.482;9.206;2022-09-30T16:38:04;3.70;;;3.00;;
9819;SDS011;4949;48.482;9.206;2022-09-30T16:43:09;3.57;;;3.27;;
9819;SDS011;4949;48.482;9.206;2022-09-30T16:48:13;4.67;;;4.27;;
9819;SDS011;4949;48.482;9.206;2022-09-30T16:53:15;4.60;;;4.10;;
9819;SDS011;4949;48.482;9.206;2022-09-30T16:58:22;5.00;;;4.53;;
9819;SDS011;4949;48.482;9.206;2022-09-30T17:03:22;5.77;;;4.17;;
9819;SDS011;4949;48.482;9.206;2022-09-30T17:08:27;10.87;;;4.60;;
9819;SDS011;4949;48.482;9.206;2022-09-30T17:13:32;8.50;;;7.30;;
9819;SDS011;4949;48.482;9.206;2022-09-30T17:18:34;5.27;;;4.40;;
9819;SDS011;4949;48.482;9.206;2022-09-30T17:23:37;5.70;;;5.20;;
9819;SDS011;4949;48.482;9.206;2022-09-30T17:28:38;4.67;;;4.27;;
9819;SDS011;4949;48.482;9.206;2022-09-30T17:33:39;5.10;;;4.30;;
9819;SDS011;4949;48.482;9.206;2022-09-30T17:38:45;4.63;;;3.77;;
9819;SDS011;4949;48.482;9.206;2022-09-30T17:43:51;4.40;;;3.80;;
9819;SDS011;4949;48.482;9.206;2022-09-30T17:48:55;4.90;;;4.20;;
9819;SDS011;4949;48.482;9.206;2022-09-30T17:54:00;4.67;;;4.13;;
9819;SDS011;4949;48.482;9.206;2022-09-30T17:59:04;4.83;;;4.23;;
9819;SDS011;4949;48.482;9.206;2022-09-30T18:04:05;7.03;;;5.53;;
9819;SDS011;4949;48.482;9.206;2022-09-30T18:09:06;6.23;;;5.63;;
9819;SDS011;4949;48.482;9.206;2022-09-30T18:14:09;7.50;;;6.70;;
9819;SDS011;4949;48.482;9.206;2022-09-30T18:19:12;6.83;;;5.73;;
9819;SDS011;4949;48.482;9.206;2022-09-30T18:24:15;7.00;;;6.30;;
9819;SDS011;4949;48.482;9.206;2022-09-30T18:29:38;6.83;;;6.23;;
9819;SDS011;4949;48.482;9.206;2022-09-30T18:34:44;7.37;;;5.80;;
9819;SDS011;4949;48.482;9.206;2022-09-30T18:39:44;8.80;;;7.90;;
9819;SDS011;4949;48.482;9.206;2022-09-30T18:44:50;7.97;;;7.17;;
9819;SDS011;4949;48.482;9.206;2022-09-30T18:50:00;7.00;;;6.40;;
9819;SDS011;4949;48.482;9.206;2022-09-30T18:55:06;8.90;;;8.07;;
9819;SDS011;4949;48.482;9.206;2022-09-30T19:00:11;8.20;;;7.17;;
9819;SDS011;4949;48.482;9.206;2022-09-30T19:05:16;8.47;;;6.77;;
9819;SDS011;4949;48.482;9.206;2022-09-30T19:10:21;7.43;;;6.73;;
9819;SDS011;4949;48.482;9.206;2022-09-30T19:15:24;8.73;;;7.90;;
9819;SDS011;4949;48.482;9.206;2022-09-30T19:20:30;6.97;;;6.33;;
9819;SDS011;4949;48.482;9.206;2022-09-30T19:25:36;7.47;;;6.77;;
9819;SDS011;4949;48.482;9.206;2022-09-30T19:30:40;7.67;;;6.97;;
9819;SDS011;4949;48.482;9.206;2022-09-30T19:35:41;9.27;;;8.37;;
9819;SDS011;4949;48.482;9.206;2022-09-30T19:40:44;7.37;;;6.67;;
9819;SDS011;4949;48.482;9.206;2022-09-30T19:46:04;6.93;;;6.33;;
9819;SDS011;4949;48.482;9.206;2022-09-30T19:51:31;7.80;;;7.13;;
9819;SDS011;4949;48.482;9.206;2022-09-30T19:56:33;8.10;;;6.90;;
9819;SDS011;4949;48.482;9.206;2022-09-30T20:01:41;7.30;;;6.70;;
9819;SDS011;4949;48.482;9.206;2022-09-30T20:06:45;7.47;;;6.87;;
9819;SDS011;4949;48.482;9.206;2022-09-30T20:11:51;7.43;;;6.73;;
9819;SDS011;4949;48.482;9.206;2022-09-30T20:16:57;7.23;;;6.60;;
9819;SDS011;4949;48.482;9.206;2022-09-30T20:22:01;7.60;;;6.90;;
9819;SDS011;4949;48.482;9.206;2022-09-30T20:27:04;7.20;;;6.30;;
9819;SDS011;4949;48.482;9.206;2022-09-30T20:32:15;7.30;;;6.60;;
9819;SDS011;4949;48.482;9.206;2022-09-30T20:37:19;7.23;;;6.63;;
9819;SDS011;4949;48.482;9.206;2022-09-30T20:42:20;6.83;;;6.20;;
9819;SDS011;4949;48.482;9.206;2022-09-30T20:47:22;7.27;;;6.50;;
9819;SDS011;4949;48.482;9.206;2022-09-30T20:52:25;7.20;;;6.60;;
9819;SDS011;4949;48.482;9.206;2022-09-30T20:57:29;6.90;;;6.23;;
9819;SDS011;4949;48.482;9.206;2022-09-30T21:02:32;7.60;;;6.90;;
9819;SDS011;4949;48.482;9.206;2022-09-30T21:07:33;7.50;;;6.80;;
9819;SDS011;4949;48.482;9.206;2022-09-30T21:12:38;7.77;;;7.03;;
9819;SDS011;4949;48.482;9.206;2022-09-30T21:17:40;7.27;;;6.67;;
9819;SDS011;4949;48.482;9.206;2022-09-30T21:22:45;8.60;;;7.80;;
9819;SDS011;4949;48.482;9.206;2022-09-30T21:27:48;9.23;;;8.10;;
9819;SDS011;4949;48.482;9.206;2022-09-30T21:32:50;8.20;;;7.50;;
9819;SDS011;4949;48.482;9.206;2022-09-30T21:37:55;7.17;;;6.47;;
9819;SDS011;4949;48.482;9.206;2022-09-30T21:42:59;9.20;;;8.20;;
9819;SDS011;4949;48.482;9.206;2022-09-30T21:48:03;7.60;;;6.80;;
9819;SDS011;4949;48.482;9.206;2022-09-30T21:53:05;6.37;;;5.87;;
9819;SDS011;4949;48.482;9.206;2022-09-30T21:58:06;7.63;;;6.90;;
9819;SDS011;4949;48.482;9.206;2022-09-30T22:03:07;8.20;;;7.40;;
9819;SDS011;4949;48.482;9.206;2022-09-30T22:08:08;7.83;;;6.90;;
9819;SDS011;4949;48.482;9.206;2022-09-30T22:13:09;15.23;;;12.00;;
9819;SDS011;4949;48.482;9.206;2022-09-30T22:18:15;8.33;;;7.53;;
9819;SDS011;4949;48.482;9.206;2022-09-30T22:23:18;7.57;;;6.87;;
9819;SDS011;4949;48.482;9.206;2022-09-30T22:28:21;8.40;;;7.60;;
9819;SDS011;4949;48.482;9.206;2022-09-30T22:33:24;7.63;;;7.00;;
9819;SDS011;4949;48.482;9.206;2022-09-30T22:38:44;8.50;;;7.13;;
9819;SDS011;4949;48.482;9.206;2022-09-30T22:43:50;9.83;;;8.90;;
9819;SDS011;4949;48.482;9.206;2022-09-30T22:48:54;7.40;;;6.60;;
9819;SDS011;4949;48.482;9.206;2022-09-30T22:53:59;7.50;;;6.80;;
9819;SDS011;4949;48.482;9.206;2022-09-30T22:59:02;7.30;;;6.70;;
9819;SDS011;4949;48.482;9.206;2022-09-30T23:04:03;8.63;;;7.60;;
9819;SDS011;4949;48.482;9.206;2022-09-30T23:09:09;7.97;;;7.17;;
9819;SDS011;4949;48.482;9.206;2022-09-30T23:14:10;7.17;;;6.57;;
9819;SDS011;4949;48.482;9.206;2022-09-30T23:19:13;7.10;;;6.50;;
9819;SDS011;4949;48.482;9.206;2022-09-30T23:24:14;7.20;;;6.50;;
9819;SDS011;4949;48.482;9.206;2022-09-30T23:29:15;7.50;;;6.80;;
9819;SDS011;4949;48.482;9.206;2022-09-30T23:34:15;7.60;;;6.80;;
9819;SDS011;4949;48.482;9.206;2022-09-30T23:39:16;11.73;;;8.40;;
9819;SDS011;4949;48.482;9.206;2022-09-30T23:44:18;7.80;;;7.10;;
9819;SDS011;4949;48.482;9.206;2022-09-30T23:49:23;8.43;;;7.63;;
9819;SDS011;4949;48.482;9.206;2022-09-30T23:54:24;9.23;;;8.43;;
9819;SDS011;4949;48.482;9.206;2022-09-30T23:59:27;7.40;;;6.77;;
